createdAt,value
2023-07-25T00:01:14.168Z,-23692.47
2023-07-25T00:03:16.930Z,-23691.84
2023-07-25T00:05:19.719Z,-23692.00
2023-07-25T00:07:22.467Z,-23692.16
2023-07-25T00:09:25.170Z,-23688.84
2023-07-25T00:11:27.864Z,-23684.41
2023-07-25T00:13:30.960Z,-23685.84
2023-07-25T00:15:33.702Z,-23685.06
2023-07-25T00:17:36.430Z,-23686.63
2023-07-25T00:19:39.152Z,-23687.56
2023-07-25T00:21:41.026Z,-23689.16
2023-07-25T00:23:43.813Z,-23686.00
2023-07-25T00:25:46.551Z,-23688.03
2023-07-25T00:27:49.343Z,-23686.00
2023-07-25T00:29:54.739Z,-23679.84
2023-07-25T00:31:57.692Z,-23678.13
2023-07-25T00:34:00.480Z,-23677.03
2023-07-25T00:36:03.630Z,-23677.50
2023-07-25T00:38:06.388Z,-23677.50
2023-07-25T00:40:10.002Z,-23681.28
2023-07-25T00:42:11.776Z,-23684.59
2023-07-25T00:44:14.403Z,-23677.81
2023-07-25T00:46:19.107Z,-23673.88
2023-07-25T00:48:21.064Z,-23673.09
2023-07-25T00:50:23.902Z,-23672.75
2023-07-25T00:52:27.290Z,-23670.56
2023-07-25T00:54:29.018Z,-23671.50
2023-07-25T00:56:31.752Z,-23676.56
2023-07-25T00:58:34.509Z,-23678.28
2023-07-25T01:00:39.267Z,-23675.28
2023-07-25T01:02:43.473Z,-23677.50
2023-07-25T01:04:46.253Z,-23678.75
2023-07-25T01:06:50.016Z,-23680.66
2023-07-25T01:08:54.876Z,-23680.47
2023-07-25T01:10:57.562Z,-23678.44
2023-07-25T01:13:00.361Z,-23677.19
2023-07-25T01:15:03.284Z,-23674.19
2023-07-25T01:17:09.384Z,-23674.66
2023-07-25T01:19:13.556Z,-23678.28
2023-07-25T01:21:16.568Z,-23675.59
2023-07-25T01:23:20.533Z,-23680.00
2023-07-25T01:25:24.706Z,-23675.75
2023-07-25T01:27:27.395Z,-23676.84
2023-07-25T01:29:29.186Z,-23675.44
2023-07-25T01:31:32.125Z,-23678.13
2023-07-25T01:33:35.061Z,-23674.66
2023-07-25T01:35:37.803Z,-23674.50
2023-07-25T01:37:40.508Z,-23677.34
2023-07-25T01:39:44.911Z,-23675.59
2023-07-25T01:41:48.934Z,-23670.56
2023-07-25T01:43:51.626Z,-23674.66
2023-07-25T01:45:54.427Z,-23671.97
2023-07-25T01:47:58.227Z,-23673.09
2023-07-25T01:50:01.023Z,-23672.75
2023-07-25T01:52:03.831Z,-23669.13
2023-07-25T01:54:06.656Z,-23668.03
2023-07-25T01:56:09.363Z,-23670.56
2023-07-25T01:58:13.383Z,-23672.28
2023-07-25T02:00:15.447Z,-23669.94
2023-07-25T02:02:18.357Z,-23670.56
2023-07-25T02:04:21.184Z,-23669.94
2023-07-25T02:06:23.016Z,-23668.97
2023-07-25T02:08:25.694Z,-23669.28
2023-07-25T02:10:28.832Z,-23670.09
2023-07-25T02:12:31.721Z,-23668.66
2023-07-25T02:14:35.822Z,-23669.13
2023-07-25T02:16:38.960Z,-23667.25
2023-07-25T02:18:41.764Z,-23663.94
2023-07-25T02:20:44.435Z,-23666.94
2023-07-25T02:22:47.098Z,-23662.03
2023-07-25T02:24:49.842Z,-23657.31
2023-07-25T02:26:52.757Z,-23660.16
2023-07-25T02:28:55.434Z,-23662.03
2023-07-25T02:30:58.660Z,-23660.94
2023-07-25T02:33:01.377Z,-23659.22
2023-07-25T02:35:04.282Z,-23656.53
2023-07-25T02:37:06.539Z,-23658.88
2023-07-25T02:39:09.669Z,-23655.09
2023-07-25T02:41:12.374Z,-23652.59
2023-07-25T02:43:15.049Z,-23655.75
2023-07-25T02:45:17.987Z,-23661.25
2023-07-25T02:47:22.040Z,-23657.63
2023-07-25T02:49:23.749Z,-23650.69
2023-07-25T02:51:26.480Z,-23651.94
2023-07-25T02:53:29.129Z,-23654.47
2023-07-25T02:55:31.897Z,-23652.59
2023-07-25T02:57:34.632Z,-23654.16
2023-07-25T02:59:37.379Z,-23652.44
2023-07-25T03:01:40.093Z,-23654.31
2023-07-25T03:03:44.086Z,-23650.69
2023-07-25T03:05:46.809Z,-23652.91
2023-07-25T03:07:49.679Z,-23652.91
2023-07-25T03:09:51.466Z,-23653.06
2023-07-25T03:11:54.175Z,-23653.69
2023-07-25T03:13:56.844Z,-23656.69
2023-07-25T03:15:58.669Z,-23660.16
2023-07-25T03:18:01.448Z,-23663.00
2023-07-25T03:20:06.362Z,-23664.72
2023-07-25T03:22:09.311Z,-23667.09
2023-07-25T03:24:11.973Z,-23670.88
2023-07-25T03:26:14.825Z,-23671.81
2023-07-25T03:28:17.634Z,-23675.44
2023-07-25T03:30:20.657Z,-23676.06
2023-07-25T03:32:23.409Z,-23681.59
2023-07-25T03:34:26.090Z,-23680.00
2023-07-25T03:36:30.198Z,-23679.53
2023-07-25T03:38:32.861Z,-23680.66
2023-07-25T03:40:35.632Z,-23679.06
2023-07-25T03:42:38.371Z,-23681.59
2023-07-25T03:44:41.096Z,-23683.16
2023-07-25T03:46:43.805Z,-23681.75
2023-07-25T03:48:46.510Z,-23682.84
2023-07-25T03:50:49.205Z,-23680.78
2023-07-25T03:52:53.341Z,-23683.78
2023-07-25T03:54:56.088Z,-23681.91
2023-07-25T03:56:58.787Z,-23682.06
2023-07-25T03:59:01.828Z,-23684.41
2023-07-25T04:01:03.577Z,-23686.63
2023-07-25T04:03:15.177Z,-23680.47
2023-07-25T04:05:18.509Z,-23685.38
2023-07-25T04:07:21.252Z,-23687.25
2023-07-25T04:09:25.347Z,-23688.69
2023-07-25T04:11:28.048Z,-23691.06
2023-07-25T04:13:30.917Z,-23692.31
2023-07-25T04:15:33.677Z,-23689.47
2023-07-25T04:17:35.403Z,-23691.53
2023-07-25T04:19:38.181Z,-23693.56
2023-07-25T04:21:40.867Z,-23697.97
2023-07-25T04:23:43.763Z,-23691.84
2023-07-25T04:25:47.729Z,-23684.75
2023-07-25T04:27:50.413Z,-23687.09
2023-07-25T04:29:53.148Z,-23682.69
2023-07-25T04:31:54.873Z,-23681.91
2023-07-25T04:33:57.608Z,-23685.84
2023-07-25T04:36:00.330Z,-23678.75
2023-07-25T04:38:03.001Z,-23681.91
2023-07-25T04:40:06.053Z,-23685.69
2023-07-25T04:42:10.128Z,-23681.91
2023-07-25T04:44:12.910Z,-23675.75
2023-07-25T04:46:15.644Z,-23679.06
2023-07-25T04:48:18.378Z,-23670.56
2023-07-25T04:50:21.070Z,-23670.09
2023-07-25T04:52:23.773Z,-23674.81
2023-07-25T04:54:26.496Z,-23680.16
2023-07-25T04:56:29.145Z,-23671.03
2023-07-25T04:58:32.231Z,-23675.44
2023-07-25T05:00:35.002Z,-23675.28
2023-07-25T05:02:38.444Z,-23670.25
2023-07-25T05:04:46.172Z,-23675.28
2023-07-25T05:06:49.987Z,-23672.59
2023-07-25T05:08:52.728Z,-23678.13
2023-07-25T05:10:56.010Z,-23679.06
2023-07-25T05:12:58.690Z,-23678.75
2023-07-25T05:15:02.834Z,-23680.16
2023-07-25T05:17:05.999Z,-23678.59
2023-07-25T05:19:08.679Z,-23680.00
2023-07-25T05:21:11.347Z,-23678.28
2023-07-25T05:23:14.065Z,-23674.66
2023-07-25T05:25:16.813Z,-23675.13
2023-07-25T05:27:18.549Z,-23672.13
2023-07-25T05:29:21.311Z,-23679.38
2023-07-25T05:31:25.453Z,-23679.53
2023-07-25T05:33:28.195Z,-23674.97
2023-07-25T05:35:30.935Z,-23677.81
2023-07-25T05:37:37.217Z,-23683.47
2023-07-25T05:39:39.900Z,-23681.59
2023-07-25T05:41:43.994Z,-23680.31
2023-07-25T05:43:46.810Z,-23681.28
2023-07-25T05:45:49.482Z,-23677.97
2023-07-25T05:47:53.518Z,-23678.91
2023-07-25T05:49:56.508Z,-23679.22
2023-07-25T05:51:59.214Z,-23678.44
2023-07-25T05:54:01.871Z,-23676.38
2023-07-25T05:56:04.878Z,-23671.66
2023-07-25T05:58:07.640Z,-23677.81
2023-07-25T06:00:11.174Z,-23677.19
2023-07-25T06:02:13.011Z,-23677.03
2023-07-25T06:04:17.092Z,-23670.56
2023-07-25T06:06:19.752Z,-23673.56
2023-07-25T06:08:22.410Z,-23680.47
2023-07-25T06:10:25.212Z,-23683.47
2023-07-25T06:12:27.984Z,-23680.16
2023-07-25T06:14:30.935Z,-23679.69
2023-07-25T06:16:32.874Z,-23684.75
2023-07-25T06:18:35.610Z,-23689.47
2023-07-25T06:20:39.666Z,-23688.84
2023-07-25T06:22:42.385Z,-23695.44
2023-07-25T06:24:45.394Z,-23696.41
2023-07-25T06:26:48.113Z,-23693.56
2023-07-25T06:28:52.139Z,-23697.97
2023-07-25T06:30:54.936Z,-23698.28
2023-07-25T06:32:57.886Z,-23691.34
2023-07-25T06:35:00.578Z,-23684.13
2023-07-25T06:37:04.949Z,-23687.56
2023-07-25T06:39:07.684Z,-23692.78
2023-07-25T06:41:10.385Z,-23690.09
2023-07-25T06:43:13.102Z,-23689.94
2023-07-25T06:45:15.952Z,-23693.25
2023-07-25T06:47:18.729Z,-23690.41
2023-07-25T06:49:21.380Z,-23684.91
2023-07-25T06:51:24.153Z,-23688.53
2023-07-25T06:53:29.198Z,-23693.25
2023-07-25T06:55:31.898Z,-23698.91
2023-07-25T06:57:34.610Z,-23698.44
2023-07-25T06:59:37.281Z,-23696.41
2023-07-25T07:01:40.029Z,-23693.72
2023-07-25T07:03:42.794Z,-23692.94
2023-07-25T07:05:53.701Z,-23697.97
2023-07-25T07:07:56.358Z,-23689.47
2023-07-25T07:10:00.440Z,-23692.00
2023-07-25T07:12:02.176Z,-23689.78
2023-07-25T07:14:04.933Z,-23691.84
2023-07-25T07:16:07.678Z,-23689.00
2023-07-25T07:18:10.420Z,-23688.84
2023-07-25T07:20:13.888Z,-23692.00
2023-07-25T07:22:16.618Z,-23688.69
2023-07-25T07:24:19.762Z,-23684.41
2023-07-25T07:26:24.040Z,-23687.56
2023-07-25T07:28:26.964Z,-23692.31
2023-07-25T07:30:29.686Z,-23692.31
2023-07-25T07:32:32.492Z,-23695.28
2023-07-25T07:34:35.226Z,-23695.63
2023-07-25T07:36:37.985Z,-23691.69
2023-07-25T07:38:40.681Z,-23696.41
2023-07-25T07:40:43.475Z,-23697.34
2023-07-25T07:42:47.576Z,-23689.00
2023-07-25T07:44:50.271Z,-23690.72
2023-07-25T07:46:53.052Z,-23698.28
2023-07-25T07:48:55.823Z,-23726.00
2023-07-25T07:51:04.307Z,-23770.66
2023-07-25T07:53:07.101Z,-23769.88
2023-07-25T07:55:11.664Z,-23777.56
2023-07-25T07:57:14.461Z,-23787.13
2023-07-25T07:59:18.518Z,-23766.72
2023-07-25T08:01:23.598Z,-23757.44
2023-07-25T08:03:26.578Z,-23749.28
2023-07-25T08:05:29.364Z,-23750.69
2023-07-25T08:07:31.198Z,-23760.44
2023-07-25T08:09:34.466Z,-23753.38
2023-07-25T08:11:37.494Z,-23755.72
2023-07-25T08:13:40.428Z,-23763.75
2023-07-25T08:15:44.728Z,-23764.69
2023-07-25T08:17:47.554Z,-23759.19
2023-07-25T08:19:51.463Z,-23774.25
2023-07-25T08:21:54.834Z,-23797.81
2023-07-25T08:23:57.638Z,-23843.75
2023-07-25T08:26:00.518Z,-23837.66
2023-07-25T08:28:03.284Z,-23824.31
2023-07-25T08:30:07.454Z,-23798.91
2023-07-25T08:32:10.773Z,-23782.91
2023-07-25T08:34:13.562Z,-23768.75
2023-07-25T08:36:16.259Z,-23773.47
2023-07-25T08:38:18.919Z,-23762.47
2023-07-25T08:40:22.124Z,-23771.13
2023-07-25T08:42:26.592Z,-23777.88
2023-07-25T08:44:28.589Z,-23769.53
2023-07-25T08:46:34.506Z,-23785.72
2023-07-25T08:48:40.418Z,-23792.63
2023-07-25T08:50:45.884Z,-23788.41
2023-07-25T08:52:51.785Z,-23786.97
2023-07-25T08:54:54.885Z,-23813.19
2023-07-25T08:56:57.873Z,-23818.69
2023-07-25T08:59:01.542Z,-23821.34
2023-07-25T09:01:04.496Z,-23800.16
2023-07-25T09:03:08.686Z,-23797.34
2023-07-25T09:05:13.208Z,-23780.88
2023-07-25T09:07:15.966Z,-23772.53
2023-07-25T09:09:20.393Z,-23761.53
2023-07-25T09:11:23.122Z,-23770.00
2023-07-25T09:13:25.978Z,-23761.38
2023-07-25T09:15:28.721Z,-23752.88
2023-07-25T09:17:31.957Z,-23744.41
2023-07-25T09:19:35.002Z,-23754.94
2023-07-25T09:21:49.016Z,-23756.03
2023-07-25T09:23:55.717Z,-23754.31
2023-07-25T09:26:06.537Z,-23745.66
2023-07-25T09:28:09.241Z,-23760.44
2023-07-25T09:30:14.257Z,-23762.78
2023-07-25T09:32:22.409Z,-23782.28
2023-07-25T09:34:25.882Z,-23775.34
2023-07-25T09:36:32.287Z,-23771.59
2023-07-25T09:38:36.237Z,-23786.97
2023-07-25T09:40:39.810Z,-23789.50
2023-07-25T09:42:44.145Z,-23761.22
2023-07-25T09:44:48.697Z,-23773.16
2023-07-25T09:46:54.884Z,-23814.91
2023-07-25T09:48:56.644Z,-23843.75
2023-07-25T09:50:59.689Z,-23904.03
2023-07-25T09:53:03.429Z,-23861.31
2023-07-25T09:55:08.469Z,-23877.59
2023-07-25T09:57:11.823Z,-23884.47
2023-07-25T09:59:15.143Z,-23883.84
2023-07-25T10:01:18.230Z,-23878.84
2023-07-25T10:03:22.415Z,-23871.03
2023-07-25T10:05:26.900Z,-23858.03
2023-07-25T10:07:32.377Z,-23856.78
2023-07-25T10:09:36.067Z,-23843.91
2023-07-25T10:11:42.648Z,-23857.41
2023-07-25T10:13:46.042Z,-23847.53
2023-07-25T10:15:48.934Z,-23885.13
2023-07-25T10:17:51.896Z,-23894.66
2023-07-25T10:19:56.470Z,-23899.81
2023-07-25T10:21:59.301Z,-23894.19
2023-07-25T10:24:02.162Z,-23865.22
2023-07-25T10:26:12.448Z,-23866.31
2023-07-25T10:28:23.839Z,-23828.72
2023-07-25T10:30:27.781Z,-23835.31
2023-07-25T10:32:45.993Z,-23845.81
2023-07-25T10:34:49.422Z,-23869.94
2023-07-25T10:37:21.607Z,-23866.16
2023-07-25T10:39:27.080Z,-23847.22
2023-07-25T10:41:30.247Z,-23857.88
2023-07-25T10:43:56.964Z,-23836.72
2023-07-25T10:46:02.423Z,-23837.19
2023-07-25T10:48:24.446Z,-23827.16
2023-07-25T10:50:30.073Z,-23820.25
2023-07-25T10:52:44.090Z,-23812.56
2023-07-25T10:55:05.752Z,-23817.44
2023-07-25T10:57:18.177Z,-23798.13
2023-07-25T10:59:20.925Z,-23777.88
2023-07-25T11:01:41.376Z,-23773.47
2023-07-25T11:03:44.170Z,-23764.38
2023-07-25T11:05:48.344Z,-23760.91
2023-07-25T11:07:51.720Z,-23756.66
2023-07-25T11:09:54.585Z,-23759.00
2023-07-25T11:11:58.039Z,-23756.03
2023-07-25T11:14:02.628Z,-23767.81
2023-07-25T11:16:07.084Z,-23777.25
2023-07-25T11:18:09.844Z,-23797.50
2023-07-25T11:20:14.080Z,-23790.75
2023-07-25T11:22:18.485Z,-23793.88
2023-07-25T11:24:21.945Z,-23783.84
2023-07-25T11:26:27.514Z,-23795.78
2023-07-25T11:28:30.637Z,-23789.34
2023-07-25T11:30:35.567Z,-23804.09
2023-07-25T11:32:38.311Z,-23835.00
2023-07-25T11:34:41.126Z,-23838.75
2023-07-25T11:36:44.324Z,-23827.78
2023-07-25T11:38:48.428Z,-23833.44
2023-07-25T11:40:55.532Z,-23827.16
2023-07-25T11:42:59.058Z,-23819.00
2023-07-25T11:45:02.904Z,-23831.84
2023-07-25T11:47:06.583Z,-23834.84
2023-07-25T11:49:10.620Z,-23836.25
2023-07-25T11:51:13.533Z,-23828.09
2023-07-25T11:53:17.425Z,-23816.34
2023-07-25T11:55:21.798Z,-23817.13
2023-07-25T11:57:24.732Z,-23828.72
2023-07-25T11:59:29.528Z,-23824.31
2023-07-25T12:01:34.506Z,-23818.69
2023-07-25T12:03:37.625Z,-23837.34
2023-07-25T12:05:40.340Z,-23852.22
2023-07-25T12:07:49.642Z,-23849.41
2023-07-25T12:09:53.811Z,-23848.78
2023-07-25T12:11:58.057Z,-23881.50
2023-07-25T12:14:02.705Z,-23863.97
2023-07-25T12:16:04.811Z,-23835.47
2023-07-25T12:18:07.599Z,-23832.31
2023-07-25T12:20:20.909Z,-23800.63
2023-07-25T12:22:23.606Z,-23769.88
2023-07-25T12:24:26.352Z,-23781.97
2023-07-25T12:26:29.748Z,-23776.63
2023-07-25T12:28:41.063Z,-23773.16
2023-07-25T12:30:43.966Z,-23788.72
2023-07-25T12:32:46.851Z,-23764.50
2023-07-25T12:34:50.111Z,-23751.47
2023-07-25T12:36:54.182Z,-23781.66
2023-07-25T12:38:56.965Z,-23756.34
2023-07-25T12:41:00.030Z,-23772.53
2023-07-25T12:43:02.721Z,-23783.53
2023-07-25T12:45:10.823Z,-23790.13
2023-07-25T12:47:14.256Z,-23789.81
2023-07-25T12:49:16.933Z,-23773.47
2023-07-25T12:51:19.718Z,-23779.13
2023-07-25T12:53:21.552Z,-23779.75
2023-07-25T12:55:24.482Z,-23806.44
2023-07-25T12:57:27.247Z,-23805.03
2023-07-25T12:59:29.955Z,-23789.97
2023-07-25T13:01:34.625Z,-23764.03
2023-07-25T13:03:41.673Z,-23753.69
2023-07-25T13:05:44.730Z,-23769.38
2023-07-25T13:07:47.431Z,-23778.50
2023-07-25T13:09:53.457Z,-23798.13
2023-07-25T13:11:56.207Z,-23814.13
2023-07-25T13:13:58.966Z,-23785.25
2023-07-25T13:16:02.163Z,-23828.09
2023-07-25T13:18:06.591Z,-23787.13
2023-07-25T13:20:09.950Z,-23778.66
2023-07-25T13:22:12.758Z,-23778.50
2023-07-25T13:24:15.540Z,-23767.50
2023-07-25T13:26:18.240Z,-23766.25
2023-07-25T13:28:21.032Z,-23753.69
2023-07-25T13:30:23.892Z,-23757.13
2023-07-25T13:32:26.895Z,-23741.56
2023-07-25T13:34:31.013Z,-23748.94
2023-07-25T13:36:33.718Z,-23742.50
2023-07-25T13:38:36.415Z,-23735.91
2023-07-25T13:40:39.393Z,-23722.53
2023-07-25T13:42:42.197Z,-23712.78
2023-07-25T13:44:47.905Z,-23722.22
2023-07-25T13:46:51.329Z,-23717.81
2023-07-25T13:48:54.087Z,-23730.72
2023-07-25T13:50:58.452Z,-23739.38
2023-07-25T13:53:01.158Z,-23747.38
2023-07-25T13:55:03.969Z,-23733.06
2023-07-25T13:57:10.508Z,-23726.63
2023-07-25T13:59:13.741Z,-23725.38
2023-07-25T14:01:16.536Z,-23715.59
2023-07-25T14:03:19.311Z,-23731.81
2023-07-25T14:05:24.248Z,-23727.72
2023-07-25T14:07:28.327Z,-23742.66
2023-07-25T14:09:31.039Z,-23735.13
2023-07-25T14:11:34.372Z,-23716.41
2023-07-25T14:13:37.327Z,-23716.88
2023-07-25T14:15:40.263Z,-23716.88
2023-07-25T14:17:43.007Z,-23711.34
2023-07-25T14:19:45.774Z,-23702.69
2023-07-25T14:21:48.516Z,-23704.28
2023-07-25T14:23:52.566Z,-23712.78
2023-07-25T14:25:55.333Z,-23697.97
2023-07-25T14:27:58.044Z,-23694.19
2023-07-25T14:30:00.726Z,-23709.94
2023-07-25T14:32:03.474Z,-23720.00
2023-07-25T14:34:06.192Z,-23711.81
2023-07-25T14:36:08.929Z,-23694.50
2023-07-25T14:38:13.981Z,-23696.72
2023-07-25T14:40:18.584Z,-23698.59
2023-07-25T14:42:21.281Z,-23698.75
2023-07-25T14:44:24.006Z,-23722.53
2023-07-25T14:46:26.865Z,-23734.66
2023-07-25T14:48:29.672Z,-23740.63
2023-07-25T14:50:32.510Z,-23720.66
2023-07-25T14:52:35.247Z,-23736.38
2023-07-25T14:54:37.954Z,-23739.38
2023-07-25T14:56:42.060Z,-23730.88
2023-07-25T14:58:44.788Z,-23720.97
2023-07-25T15:00:47.628Z,-23720.97
2023-07-25T15:02:50.527Z,-23750.53
2023-07-25T15:04:53.280Z,-23749.13
2023-07-25T15:06:56.041Z,-23737.94
2023-07-25T15:08:58.824Z,-23744.88
2023-07-25T15:11:00.818Z,-23747.38
2023-07-25T15:13:05.002Z,-23742.03
2023-07-25T15:15:08.624Z,-23726.94
2023-07-25T15:17:12.099Z,-23719.06
2023-07-25T15:19:14.817Z,-23721.91
2023-07-25T15:21:17.704Z,-23730.41
2023-07-25T15:23:20.454Z,-23735.13
2023-07-25T15:25:23.246Z,-23725.22
2023-07-25T15:27:26.055Z,-23729.47
2023-07-25T15:29:30.198Z,-23729.78
2023-07-25T15:31:33.266Z,-23729.63
2023-07-25T15:33:35.377Z,-23730.41
2023-07-25T15:35:38.176Z,-23727.88
2023-07-25T15:37:40.917Z,-23716.53
2023-07-25T15:39:43.655Z,-23717.03
2023-07-25T15:41:46.427Z,-23700.66
2023-07-25T15:43:49.166Z,-23703.97
2023-07-25T15:45:53.380Z,-23701.13
2023-07-25T15:47:56.178Z,-23690.41
2023-07-25T15:49:58.000Z,-23694.34
2023-07-25T15:52:01.076Z,-23698.44
2023-07-25T15:54:03.848Z,-23683.78
2023-07-25T15:56:06.623Z,-23679.38
2023-07-25T15:58:09.326Z,-23679.69
2023-07-25T16:00:12.840Z,-23683.47
2023-07-25T16:02:16.889Z,-23673.72
2023-07-25T16:04:19.700Z,-23674.66
2023-07-25T16:06:22.567Z,-23666.94
2023-07-25T16:08:25.776Z,-23672.44
2023-07-25T16:10:27.582Z,-23671.34
2023-07-25T16:12:30.264Z,-23674.34
2023-07-25T16:14:32.930Z,-23675.59
2023-07-25T16:16:35.707Z,-23679.06
2023-07-25T16:18:39.889Z,-23674.34
2023-07-25T16:20:42.670Z,-23669.13
2023-07-25T16:22:45.356Z,-23672.28
2023-07-25T16:24:48.509Z,-23666.47
2023-07-25T16:26:51.238Z,-23673.09
2023-07-25T16:28:53.976Z,-23677.34
2023-07-25T16:31:07.203Z,-23679.22
2023-07-25T16:33:19.481Z,-23684.41
2023-07-25T16:35:23.677Z,-23681.59
2023-07-25T16:37:26.384Z,-23678.13
2023-07-25T16:39:29.152Z,-23681.59
2023-07-25T16:41:32.115Z,-23681.59
2023-07-25T16:43:34.014Z,-23678.28
2023-07-25T16:45:36.804Z,-23686.00
2023-07-25T16:47:39.521Z,-23678.91
2023-07-25T16:49:42.293Z,-23679.69
2023-07-25T16:51:47.068Z,-23683.31
2023-07-25T16:53:49.833Z,-23681.91
2023-07-25T16:55:52.512Z,-23678.91
2023-07-25T16:57:56.406Z,-23680.47
2023-07-25T16:59:59.258Z,-23678.44
2023-07-25T17:02:01.917Z,-23670.72
2023-07-25T17:04:04.711Z,-23664.09
2023-07-25T17:06:06.532Z,-23669.47
2023-07-25T17:08:10.674Z,-23673.56
2023-07-25T17:10:13.528Z,-23670.56
2023-07-25T17:12:16.272Z,-23675.28
2023-07-25T17:14:19.042Z,-23671.81
2023-07-25T17:16:21.892Z,-23659.06
2023-07-25T17:18:24.714Z,-23665.50
2023-07-25T17:20:27.610Z,-23664.56
2023-07-25T17:22:30.892Z,-23652.59
2023-07-25T17:24:35.889Z,-23651.78
2023-07-25T17:26:38.789Z,-23646.44
2023-07-25T17:28:41.620Z,-23637.44
2023-07-25T17:30:44.494Z,-23644.22
2023-07-25T17:32:47.363Z,-23639.00
2023-07-25T17:34:50.099Z,-23641.53
2023-07-25T17:36:53.166Z,-23643.75
2023-07-25T17:38:55.881Z,-23639.97
2023-07-25T17:41:01.839Z,-23643.13
2023-07-25T17:43:05.093Z,-23642.47
2023-07-25T17:45:09.078Z,-23639.66
2023-07-25T17:47:11.895Z,-23633.34
2023-07-25T17:49:13.848Z,-23636.66
2023-07-25T17:51:17.715Z,-23645.00
2023-07-25T17:53:20.694Z,-23631.59
2023-07-25T17:55:23.614Z,-23640.28
2023-07-25T17:57:27.711Z,-23638.53
2023-07-25T17:59:30.489Z,-23639.00
2023-07-25T18:01:33.444Z,-23631.59
2023-07-25T18:03:36.750Z,-23627.97
2023-07-25T18:05:39.586Z,-23631.44
2023-07-25T18:07:42.338Z,-23628.13
2023-07-25T18:09:45.139Z,-23620.72
2023-07-25T18:11:47.915Z,-23626.41
2023-07-25T18:13:54.854Z,-23627.19
2023-07-25T18:15:57.628Z,-23622.59
2023-07-25T18:18:01.221Z,-23629.25
2023-07-25T18:20:04.243Z,-23627.97
2023-07-25T18:22:07.079Z,-23627.97
2023-07-25T18:24:09.804Z,-23623.41
2023-07-25T18:26:12.664Z,-23629.06
2023-07-25T18:28:16.092Z,-23616.75
2023-07-25T18:30:20.272Z,-23618.81
2023-07-25T18:32:23.716Z,-23623.56
2023-07-25T18:34:26.438Z,-23619.44
2023-07-25T18:36:29.197Z,-23626.41
2023-07-25T18:38:31.947Z,-23622.44
2023-07-25T18:40:37.113Z,-23626.72
2023-07-25T18:42:39.872Z,-23621.03
2023-07-25T18:44:42.622Z,-23612.19
2023-07-25T18:46:46.869Z,-23616.75
2023-07-25T18:48:49.881Z,-23620.88
2023-07-25T18:50:53.152Z,-23618.19
2023-07-25T18:52:56.343Z,-23621.34
2023-07-25T18:54:59.057Z,-23611.53
2023-07-25T18:57:01.781Z,-23615.19
2023-07-25T18:59:05.160Z,-23614.38
2023-07-25T19:01:06.951Z,-23618.19
2023-07-25T19:03:11.123Z,-23619.28
2023-07-25T19:05:13.987Z,-23620.09
2023-07-25T19:07:16.805Z,-23614.56
2023-07-25T19:09:21.388Z,-23611.53
2023-07-25T19:11:24.134Z,-23605.22
2023-07-25T19:13:26.852Z,-23614.72
2023-07-25T19:15:29.703Z,-23613.44
2023-07-25T19:17:32.432Z,-23614.06
2023-07-25T19:19:36.819Z,-23616.75
2023-07-25T19:21:40.415Z,-23618.19
2023-07-25T19:23:43.142Z,-23616.91
2023-07-25T19:25:45.857Z,-23621.97
2023-07-25T19:27:49.263Z,-23617.69
2023-07-25T19:29:51.973Z,-23617.69
2023-07-25T19:31:54.702Z,-23616.91
2023-07-25T19:33:57.715Z,-23611.22
2023-07-25T19:36:02.008Z,-23619.28
2023-07-25T19:38:04.722Z,-23617.69
2023-07-25T19:40:08.932Z,-23616.91
2023-07-25T19:42:11.679Z,-23616.13
2023-07-25T19:44:15.376Z,-23612.66
2023-07-25T19:46:18.168Z,-23612.81
2023-07-25T19:48:21.058Z,-23612.19
2023-07-25T19:50:23.915Z,-23616.28
2023-07-25T19:52:27.986Z,-23616.59
2023-07-25T19:54:31.364Z,-23614.56
2023-07-25T19:56:34.815Z,-23614.88
2023-07-25T19:58:37.644Z,-23614.38
2023-07-25T20:00:40.424Z,-23611.22
2023-07-25T20:02:42.310Z,-23612.81
2023-07-25T20:04:45.090Z,-23611.06
2023-07-25T20:06:47.827Z,-23606.81
2023-07-25T20:08:52.199Z,-23615.03
2023-07-25T20:10:56.144Z,-23612.97
2023-07-25T20:12:58.851Z,-23615.66
2023-07-25T20:15:00.680Z,-23611.22
2023-07-25T20:17:03.534Z,-23613.44
2023-07-25T20:19:06.320Z,-23612.50
2023-07-25T20:21:11.735Z,-23610.44
2023-07-25T20:23:14.638Z,-23610.91
2023-07-25T20:25:17.789Z,-23606.97
2023-07-25T20:27:20.716Z,-23605.84
2023-07-25T20:29:23.499Z,-23609.66
2023-07-25T20:31:26.637Z,-23605.38
2023-07-25T20:33:29.468Z,-23608.88
2023-07-25T20:35:32.287Z,-23608.22
2023-07-25T20:37:34.985Z,-23606.50
2023-07-25T20:39:38.204Z,-23606.81
2023-07-25T20:41:42.333Z,-23608.38
2023-07-25T20:43:45.198Z,-23595.91
2023-07-25T20:45:47.901Z,-23599.69
2023-07-25T20:47:50.749Z,-23598.28
2023-07-25T20:49:53.681Z,-23602.22
2023-07-25T20:51:56.494Z,-23601.28
2023-07-25T20:53:59.186Z,-23597.66
2023-07-25T20:56:02.714Z,-23598.91
2023-07-25T20:58:07.962Z,-23596.88
2023-07-25T21:00:12.042Z,-23595.75
2023-07-25T21:02:14.736Z,-23597.97
2023-07-25T21:04:17.430Z,-23594.81
2023-07-25T21:06:20.245Z,-23597.97
2023-07-25T21:08:22.936Z,-23597.66
2023-07-25T21:10:25.738Z,-23596.22
2023-07-25T21:12:28.462Z,-23598.91
2023-07-25T21:14:32.852Z,-23596.06
2023-07-25T21:16:36.022Z,-23598.75
2023-07-25T21:18:39.006Z,-23599.38
2023-07-25T21:20:41.867Z,-23601.13
2023-07-25T21:22:44.555Z,-23596.69
2023-07-25T21:24:47.443Z,-23597.97
2023-07-25T21:26:50.157Z,-23595.28
2023-07-25T21:28:52.916Z,-23600.03
2023-07-25T21:30:57.079Z,-23595.13
2023-07-25T21:32:58.911Z,-23598.13
2023-07-25T21:35:01.643Z,-23592.28
2023-07-25T21:37:04.516Z,-23593.84
2023-07-25T21:39:07.270Z,-23589.75
2023-07-25T21:41:12.949Z,-23598.28
2023-07-25T21:43:15.631Z,-23591.19
2023-07-25T21:45:18.486Z,-23590.69
2023-07-25T21:47:22.518Z,-23589.75
2023-07-25T21:49:25.348Z,-23587.84
2023-07-25T21:51:28.019Z,-23590.69
2023-07-25T21:53:31.537Z,-23586.44
2023-07-25T21:55:34.337Z,-23591.66
2023-07-25T21:57:40.090Z,-23593.84
2023-07-25T21:59:43.146Z,-23593.84
2023-07-25T22:01:45.858Z,-23588.16
2023-07-25T22:03:49.993Z,-23587.84
2023-07-25T22:05:51.811Z,-23588.50
2023-07-25T22:07:54.680Z,-23583.75
2023-07-25T22:09:57.390Z,-23582.78
2023-07-25T22:12:00.057Z,-23584.53
2023-07-25T22:14:02.759Z,-23581.84
2023-07-25T22:16:06.032Z,-23583.75
2023-07-25T22:18:08.950Z,-23579.47
2023-07-25T22:20:13.534Z,-23579.94
2023-07-25T22:22:16.336Z,-23579.31
2023-07-25T22:24:19.023Z,-23580.44
2023-07-25T22:26:21.739Z,-23576.78
2023-07-25T22:28:24.396Z,-23578.06
2023-07-25T22:30:27.126Z,-23576.78
2023-07-25T22:32:29.875Z,-23576.47
2023-07-25T22:34:32.623Z,-23577.56
2023-07-25T22:36:36.698Z,-23577.09
2023-07-25T22:38:39.478Z,-23577.09
2023-07-25T22:40:42.174Z,-23575.03
2023-07-25T22:42:44.910Z,-23572.34
2023-07-25T22:44:47.559Z,-23574.72
2023-07-25T22:46:50.262Z,-23575.84
2023-07-25T22:48:53.053Z,-23574.56
2023-07-25T22:50:54.912Z,-23576.63
2023-07-25T22:52:59.006Z,-23578.22
2023-07-25T22:55:01.760Z,-23577.25
2023-07-25T22:57:04.893Z,-23580.75
2023-07-25T22:59:07.668Z,-23580.28
2023-07-25T23:01:10.409Z,-23576.47
2023-07-25T23:03:13.191Z,-23582.16
2023-07-25T23:05:15.873Z,-23582.78
2023-07-25T23:07:18.552Z,-23582.16
2023-07-25T23:09:22.808Z,-23585.00
2023-07-25T23:11:24.618Z,-23582.16
2023-07-25T23:13:27.440Z,-23582.16
2023-07-25T23:15:30.134Z,-23580.91
2023-07-25T23:17:32.980Z,-23580.59
2023-07-25T23:19:34.813Z,-23578.84
2023-07-25T23:21:37.513Z,-23584.06
2023-07-25T23:23:40.279Z,-23579.47
2023-07-25T23:25:45.067Z,-23578.38
2023-07-25T23:27:47.810Z,-23577.09
2023-07-25T23:29:50.514Z,-23580.09